Time,TemperatureF,DewpointF,PressureIn,WindDirection,WindDirectionDegrees,WindSpeedMPH,WindSpeedGustMPH,Humidity,HourlyPrecipIn,Conditions,Clouds,dailyrainin,SoftwareType,DateUTC
2013-03-06 00:01:00,24.4,17.6,30.33,NNE,18,0.0,0.0,75,0.00,,---,0.04,VWS V14.00,2013-03-06 07:01:00,
2013-03-06 00:07:00,24.3,17.5,30.32,NNE,18,0.0,0.0,75,0.00,,---,0.00,VWS V14.00,2013-03-06 07:07:00,
2013-03-06 00:13:00,24.3,17.8,30.32,NNE,18,0.0,0.0,76,0.00,,---,0.00,VWS V14.00,2013-03-06 07:13:00,
2013-03-06 00:18:00,24.3,17.8,30.32,NNE,18,0.0,0.0,76,0.00,,---,0.00,VWS V14.00,2013-03-06 07:18:00,
2013-03-06 00:23:00,24.2,17.7,30.32,NNE,18,0.0,0.0,76,0.00,,---,0.00,VWS V14.00,2013-03-06 07:23:00,
2013-03-06 00:28:00,24.1,17.6,30.32,NNE,18,0.0,0.0,76,0.00,,---,0.00,VWS V14.00,2013-03-06 07:28:00,
2013-03-06 00:33:00,24.0,17.9,30.32,NNE,18,0.0,0.0,77,0.00,,---,0.00,VWS V14.00,2013-03-06 07:33:00,
2013-03-06 00:38:00,23.9,17.8,30.32,NNE,18,0.0,0.0,77,0.00,,---,0.00,VWS V14.00,2013-03-06 07:38:00,
2013-03-06 00:43:00,23.8,17.7,30.32,NNE,18,0.0,0.0,77,0.00,,---,0.00,VWS V14.00,2013-03-06 07:43:00,
2013-03-06 00:48:00,23.7,17.6,30.32,NNE,18,0.0,0.0,77,0.00,,---,0.00,VWS V14.00,2013-03-06 07:48:00,
2013-03-06 00:53:00,23.6,17.5,30.32,NNE,18,0.0,0.0,77,0.00,,---,0.00,VWS V14.00,2013-03-06 07:53:00,
2013-03-06 00:58:00,23.5,17.4,30.31,NNE,18,0.0,0.0,77,0.00,,---,0.00,VWS V14.00,2013-03-06 07:58:00,
2013-03-06 01:03:00,23.5,17.4,30.31,NNE,18,0.0,0.0,77,0.00,,---,0.00,VWS V14.00,2013-03-06 08:03:00,
2013-03-06 01:08:00,23.5,17.7,30.31,NNE,18,0.0,0.0,78,0.00,,---,0.00,VWS V14.00,2013-03-06 08:08:00,
2013-03-06 01:14:00,23.6,17.8,30.31,NNE,18,0.0,0.0,78,0.00,,---,0.00,VWS V14.00,2013-03-06 08:14:00,
2013-03-06 01:19:00,23.6,18.1,30.31,NNE,18,0.0,0.0,79,0.00,,---,0.00,VWS V14.00,2013-03-06 08:19:00,
2013-03-06 01:24:00,23.6,18.1,30.31,NNE,18,0.0,0.0,79,0.00,,---,0.00,VWS V14.00,2013-03-06 08:24:00,
2013-03-06 01:29:00,23.6,18.1,30.31,NNE,18,0.0,0.0,79,0.00,,---,0.00,VWS V14.00,2013-03-06 08:29:00,
2013-03-06 01:34:00,23.5,18.0,30.31,NNE,18,0.0,0.0,79,0.00,,---,0.00,VWS V14.00,2013-03-06 08:34:00,
2013-03-06 01:39:00,23.4,17.9,30.31,NNE,18,0.0,0.0,79,0.00,,---,0.00,VWS V14.00,2013-03-06 08:39:00,
2013-03-06 01:44:00,23.3,17.8,30.31,NNE,18,0.0,1.0,79,0.00,,---,0.00,VWS V14.00,2013-03-06 08:44:00,
2013-03-06 01:49:00,23.3,18.1,30.31,NNE,18,0.0,0.0,80,0.00,,---,0.00,VWS V14.00,2013-03-06 08:49:00,
2013-03-06 01:54:00,23.3,18.1,30.30,NNE,18,0.0,0.0,80,0.00,,---,0.00,VWS V14.00,2013-03-06 08:54:00,
2013-03-06 01:59:00,23.2,18.0,30.30,NNE,18,0.0,0.0,80,0.00,,---,0.00,VWS V14.00,2013-03-06 08:59:00,
2013-03-06 02:04:00,23.0,17.8,30.28,NNE,18,0.0,0.0,80,0.00,,---,0.00,VWS V14.00,2013-03-06 09:04:00,
2013-03-06 02:09:00,22.9,17.7,30.27,NNE,18,0.0,0.0,80,0.00,,---,0.00,VWS V14.00,2013-03-06 09:09:00,
2013-03-06 02:14:00,22.8,17.6,30.27,NNE,18,0.0,0.0,80,0.00,,---,0.00,VWS V14.00,2013-03-06 09:14:00,
2013-03-06 02:19:00,22.8,17.6,30.27,NNE,18,0.0,0.0,80,0.00,,---,0.00,VWS V14.00,2013-03-06 09:19:00,
2013-03-06 02:24:00,22.6,17.4,30.26,NNE,18,0.0,0.0,80,0.00,,---,0.00,VWS V14.00,2013-03-06 09:24:00,
2013-03-06 02:29:00,22.6,17.4,30.26,NNE,18,0.0,0.0,80,0.00,,---,0.00,VWS V14.00,2013-03-06 09:29:00,
2013-03-06 02:34:00,22.5,17.3,30.26,NNE,18,0.0,0.0,80,0.00,,---,0.00,VWS V14.00,2013-03-06 09:34:00,
2013-03-06 02:40:00,22.2,17.0,30.27,NNE,18,0.0,0.0,80,0.00,,---,0.00,VWS V14.00,2013-03-06 09:40:00,
2013-03-06 02:45:00,22.1,16.9,30.27,NNE,18,0.0,0.0,80,0.00,,---,0.00,VWS V14.00,2013-03-06 09:45:00,
2013-03-06 02:50:00,22.0,16.8,30.26,NNE,18,0.0,0.0,80,0.00,,---,0.00,VWS V14.00,2013-03-06 09:50:00,
2013-03-06 02:55:00,21.9,16.7,30.26,NNE,18,0.0,0.0,80,0.00,,---,0.00,VWS V14.00,2013-03-06 09:55:00,
2013-03-06 03:00:00,21.8,16.6,30.26,NNE,18,0.0,0.0,80,0.00,,---,0.00,VWS V14.00,2013-03-06 10:00:00,
2013-03-06 03:05:00,21.7,16.5,30.26,NNE,18,0.0,0.0,80,0.00,,---,0.00,VWS V14.00,2013-03-06 10:05:00,
2013-03-06 03:10:00,21.6,16.4,30.26,NNE,18,0.0,0.0,80,0.00,,---,0.00,VWS V14.00,2013-03-06 10:10:00,
2013-03-06 03:15:00,21.7,16.8,30.26,NNE,18,0.0,0.0,81,0.00,,---,0.00,VWS V14.00,2013-03-06 10:15:00,
2013-03-06 03:20:00,21.7,16.8,30.25,NNE,18,0.0,0.0,81,0.00,,---,0.00,VWS V14.00,2013-03-06 10:20:00,
2013-03-06 03:25:00,21.8,16.9,30.25,NNE,18,0.0,0.0,81,0.00,,---,0.00,VWS V14.00,2013-03-06 10:25:00,
2013-03-06 03:30:00,21.8,16.9,30.25,NNE,18,0.0,0.0,81,0.00,,---,0.00,VWS V14.00,2013-03-06 10:30:00,
2013-03-06 03:35:00,21.8,16.9,30.25,NNE,18,0.0,0.0,81,0.00,,---,0.00,VWS V14.00,2013-03-06 10:35:00,
2013-03-06 03:40:00,21.7,16.8,30.25,NNE,18,0.0,0.0,81,0.00,,---,0.00,VWS V14.00,2013-03-06 10:40:00,
2013-03-06 03:45:00,21.6,16.7,30.25,NNE,18,0.0,0.0,81,0.00,,---,0.00,VWS V14.00,2013-03-06 10:45:00,
2013-03-06 03:50:00,21.4,16.5,30.25,NNE,18,0.0,0.0,81,0.00,,---,0.00,VWS V14.00,2013-03-06 10:50:00,
2013-03-06 03:55:00,21.3,16.4,30.25,NNE,18,0.0,0.0,81,0.00,,---,0.00,VWS V14.00,2013-03-06 10:55:00,
2013-03-06 04:00:00,21.2,16.3,30.25,NNE,18,0.0,0.0,81,0.00,,---,0.00,VWS V14.00,2013-03-06 11:00:00,
2013-03-06 04:05:00,21.0,16.1,30.27,NNE,18,0.0,0.0,81,0.00,,---,0.00,VWS V14.00,2013-03-06 11:05:00,
2013-03-06 04:10:00,20.9,16.0,30.27,NNE,18,0.0,0.0,81,0.00,,---,0.00,VWS V14.00,2013-03-06 11:10:00,
2013-03-06 04:15:00,20.8,15.9,30.27,NNE,18,0.0,0.0,81,0.00,,---,0.00,VWS V14.00,2013-03-06 11:15:00,
2013-03-06 04:20:00,20.7,15.8,30.27,NNE,18,0.0,0.0,81,0.00,,---,0.00,VWS V14.00,2013-03-06 11:20:00,
2013-03-06 04:25:00,20.7,16.1,30.27,NNE,18,0.0,0.0,82,0.00,,---,0.00,VWS V14.00,2013-03-06 11:25:00,
2013-03-06 04:30:00,20.7,16.1,30.26,NNE,18,0.0,0.0,82,0.00,,---,0.00,VWS V14.00,2013-03-06 11:30:00,
2013-03-06 04:35:00,20.6,16.0,30.26,NNE,18,0.0,0.0,82,0.00,,---,0.00,VWS V14.00,2013-03-06 11:35:00,
2013-03-06 04:40:00,20.7,16.1,30.27,NNE,18,0.0,0.0,82,0.00,,---,0.00,VWS V14.00,2013-03-06 11:40:00,
2013-03-06 04:45:00,20.6,16.0,30.27,NNE,18,0.0,0.0,82,0.00,,---,0.00,VWS V14.00,2013-03-06 11:45:00,
2013-03-06 04:50:00,20.6,16.0,30.26,NNE,18,0.0,0.0,82,0.00,,---,0.00,VWS V14.00,2013-03-06 11:50:00,
2013-03-06 04:55:00,20.6,16.0,30.26,NNE,18,0.0,0.0,82,0.00,,---,0.00,VWS V14.00,2013-03-06 11:55:00,
2013-03-06 05:00:00,20.4,15.8,30.26,NNE,18,0.0,0.0,82,0.00,,---,0.00,VWS V14.00,2013-03-06 12:00:00,
2013-03-06 05:05:00,20.3,15.7,30.27,NNE,18,0.0,0.0,82,0.00,,---,0.00,VWS V14.00,2013-03-06 12:05:00,
2013-03-06 05:10:00,20.2,15.6,30.27,NNE,18,0.0,0.0,82,0.00,,---,0.00,VWS V14.00,2013-03-06 12:10:00,
2013-03-06 05:15:00,20.0,15.4,30.27,NNE,18,0.0,0.0,82,0.00,,---,0.00,VWS V14.00,2013-03-06 12:15:00,
2013-03-06 05:20:00,20.0,15.4,30.27,NNE,18,0.0,0.0,82,0.00,,---,0.00,VWS V14.00,2013-03-06 12:20:00,
2013-03-06 05:25:00,19.9,15.3,30.27,NNE,18,0.0,0.0,82,0.00,,---,0.00,VWS V14.00,2013-03-06 12:25:00,
2013-03-06 05:30:00,19.9,15.3,30.27,NNE,18,0.0,0.0,82,0.00,,---,0.00,VWS V14.00,2013-03-06 12:30:00,
2013-03-06 05:35:00,19.7,15.1,30.27,NNE,18,0.0,0.0,82,0.00,,---,0.00,VWS V14.00,2013-03-06 12:35:00,
2013-03-06 05:40:00,19.7,15.1,30.27,NNE,18,0.0,0.0,82,0.00,,---,0.00,VWS V14.00,2013-03-06 12:40:00,
2013-03-06 05:45:00,19.7,15.1,30.27,NNE,18,0.0,0.0,82,0.00,,---,0.00,VWS V14.00,2013-03-06 12:45:00,
2013-03-06 05:50:00,19.5,14.9,30.26,NNE,18,0.0,0.0,82,0.00,,---,0.00,VWS V14.00,2013-03-06 12:50:00,
2013-03-06 05:55:00,19.4,14.8,30.28,NNE,18,0.0,0.0,82,0.00,,---,0.00,VWS V14.00,2013-03-06 12:55:00,
2013-03-06 06:00:00,19.4,14.8,30.28,NNE,18,0.0,0.0,82,0.00,,---,0.00,VWS V14.00,2013-03-06 13:00:00,
2013-03-06 06:05:00,19.3,14.7,30.29,NNE,18,0.0,0.0,82,0.00,,---,0.00,VWS V14.00,2013-03-06 13:05:00,
2013-03-06 06:10:00,19.2,14.6,30.28,NNE,18,0.0,0.0,82,0.00,,---,0.00,VWS V14.00,2013-03-06 13:10:00,
2013-03-06 06:15:00,19.1,14.5,30.29,NNE,18,0.0,0.0,82,0.00,,---,0.00,VWS V14.00,2013-03-06 13:15:00,
2013-03-06 06:20:00,19.2,14.9,30.28,NNE,18,0.0,0.0,83,0.00,,---,0.00,VWS V14.00,2013-03-06 13:20:00,
2013-03-06 06:25:00,19.3,15.0,30.28,NNE,18,0.0,0.0,83,0.00,,---,0.00,VWS V14.00,2013-03-06 13:25:00,
2013-03-06 06:30:00,19.4,15.1,30.28,NNE,18,0.0,0.0,83,0.00,,---,0.00,VWS V14.00,2013-03-06 13:30:00,
2013-03-06 06:35:00,19.4,15.1,30.28,NNE,18,0.0,0.0,83,0.00,,---,0.00,VWS V14.00,2013-03-06 13:35:00,
2013-03-06 06:40:00,19.2,14.9,30.28,NNE,18,0.0,0.0,83,0.00,,---,0.00,VWS V14.00,2013-03-06 13:40:00,
2013-03-06 06:45:00,19.4,15.4,30.28,NNE,18,0.0,0.0,84,0.00,,---,0.00,VWS V14.00,2013-03-06 13:45:00,
2013-03-06 06:51:00,19.7,15.7,30.26,NNE,18,0.0,0.0,84,0.00,,---,0.00,VWS V14.00,2013-03-06 13:51:00,
2013-03-06 06:56:00,19.7,15.4,30.27,NNE,18,0.0,0.0,83,0.00,,---,0.00,VWS V14.00,2013-03-06 13:56:00,
2013-03-06 07:01:00,19.8,15.8,30.27,NNE,18,0.0,0.0,84,0.00,,---,0.00,VWS V14.00,2013-03-06 14:01:00,
2013-03-06 07:06:00,19.8,15.8,30.29,NNE,18,0.0,0.0,84,0.00,,---,0.00,VWS V14.00,2013-03-06 14:06:00,
2013-03-06 07:11:00,19.8,15.8,30.29,NNE,18,0.0,0.0,84,0.00,,---,0.00,VWS V14.00,2013-03-06 14:11:00,
2013-03-06 07:16:00,20.2,16.1,30.29,NNE,18,0.0,0.0,84,0.00,,---,0.00,VWS V14.00,2013-03-06 14:16:00,
2013-03-06 07:21:00,20.5,16.4,30.27,NNE,18,0.0,0.0,84,0.00,,---,0.00,VWS V14.00,2013-03-06 14:21:00,
2013-03-06 07:26:00,21.1,17.3,30.27,NNE,18,0.0,0.0,85,0.00,,---,0.00,VWS V14.00,2013-03-06 14:26:00,
2013-03-06 07:31:00,21.6,17.8,30.28,NNE,18,0.0,0.0,85,0.00,,---,0.00,VWS V14.00,2013-03-06 14:31:00,
2013-03-06 07:36:00,22.0,18.2,30.28,NNE,18,0.0,0.0,85,0.00,,---,0.00,VWS V14.00,2013-03-06 14:36:00,
2013-03-06 07:41:00,22.2,18.4,30.28,NNE,18,0.0,0.0,85,0.00,,---,0.00,VWS V14.00,2013-03-06 14:41:00,
2013-03-06 07:46:00,22.3,20.3,30.27,NNE,18,0.0,0.0,92,0.00,,---,0.00,VWS V14.00,2013-03-06 14:46:00,
2013-03-06 07:51:00,22.9,19.4,30.26,NNE,18,0.0,1.0,86,0.00,,---,0.00,VWS V14.00,2013-03-06 14:51:00,
2013-03-06 07:56:00,23.3,19.5,30.26,NNE,18,0.0,0.0,85,0.00,,---,0.00,VWS V14.00,2013-03-06 14:56:00,
2013-03-06 08:01:00,23.4,19.6,30.26,NNE,18,0.0,0.0,85,0.00,,---,0.00,VWS V14.00,2013-03-06 15:01:00,
2013-03-06 08:06:00,23.5,19.7,30.27,NNE,18,0.0,0.0,85,0.00,,---,0.00,VWS V14.00,2013-03-06 15:06:00,
2013-03-06 08:11:00,23.5,19.7,30.27,NNE,18,0.0,0.0,85,0.00,,---,0.00,VWS V14.00,2013-03-06 15:11:00,
2013-03-06 08:16:00,23.8,20.0,30.27,NNE,18,0.0,0.0,85,0.00,,---,0.00,VWS V14.00,2013-03-06 15:16:00,
2013-03-06 08:21:00,24.0,20.1,30.27,NNE,18,0.0,0.0,85,0.00,,---,0.00,VWS V14.00,2013-03-06 15:21:00,
2013-03-06 08:26:00,24.3,20.7,30.27,NNE,18,0.0,0.0,86,0.00,,---,0.00,VWS V14.00,2013-03-06 15:26:00,
2013-03-06 08:31:00,25.0,21.4,30.26,NNE,18,0.0,0.0,86,0.00,,---,0.00,VWS V14.00,2013-03-06 15:31:00,
2013-03-06 08:36:00,25.5,21.9,30.25,NNE,18,0.0,0.0,86,0.00,,---,0.00,VWS V14.00,2013-03-06 15:36:00,
2013-03-06 08:41:00,25.8,22.2,30.25,NNE,18,0.0,0.0,86,0.00,,---,0.00,VWS V14.00,2013-03-06 15:41:00,
2013-03-06 08:47:00,27.0,23.6,30.24,NNE,18,0.0,0.0,87,0.00,,---,0.00,VWS V14.00,2013-03-06 15:47:00,
2013-03-06 08:52:00,27.9,24.3,30.24,NNE,18,0.0,0.0,86,0.00,,---,0.00,VWS V14.00,2013-03-06 15:52:00,
2013-03-06 08:58:00,28.7,24.8,30.22,NNE,18,0.0,0.0,85,0.00,,---,0.01,VWS V14.00,2013-03-06 15:58:00,
2013-03-06 09:03:00,29.1,24.9,30.24,NNE,18,0.0,0.0,84,0.00,,---,0.01,VWS V14.00,2013-03-06 16:03:00,
2013-03-06 09:08:00,29.8,25.3,30.23,NNE,18,0.0,0.0,83,0.00,,---,0.01,VWS V14.00,2013-03-06 16:08:00,
2013-03-06 09:14:00,30.8,26.0,30.22,NNE,18,0.0,1.0,82,0.00,,---,0.01,VWS V14.00,2013-03-06 16:14:00,
2013-03-06 09:19:00,31.4,26.0,30.22,NNE,18,0.0,0.0,80,0.00,,---,0.01,VWS V14.00,2013-03-06 16:19:00,
2013-03-06 09:24:00,32.0,25.9,30.22,NNE,18,0.0,0.0,78,0.00,,---,0.01,VWS V14.00,2013-03-06 16:24:00,
2013-03-06 09:29:00,32.8,25.4,30.20,NNE,18,0.0,0.0,74,0.00,,---,0.01,VWS V14.00,2013-03-06 16:29:00,
2013-03-06 09:35:00,33.9,25.5,30.19,NNE,18,0.0,2.0,71,0.00,,---,0.01,VWS V14.00,2013-03-06 16:35:00,
2013-03-06 09:40:00,34.8,25.3,30.19,NNE,18,1.0,2.0,68,0.00,,---,0.01,VWS V14.00,2013-03-06 16:40:00,
2013-03-06 09:45:00,35.3,25.1,30.18,NNE,18,0.0,1.0,66,0.00,,---,0.01,VWS V14.00,2013-03-06 16:45:00,
2013-03-06 09:50:00,36.2,26.0,30.18,NNE,18,1.0,3.0,66,0.00,,---,0.01,VWS V14.00,2013-03-06 16:50:00,
2013-03-06 09:55:00,36.7,25.3,30.17,NNE,18,0.0,3.0,63,0.00,,---,0.01,VWS V14.00,2013-03-06 16:55:00,
2013-03-06 10:00:00,37.1,24.9,30.17,NNE,18,1.0,3.0,61,0.00,,---,0.01,VWS V14.00,2013-03-06 17:00:00,
2013-03-06 10:05:00,37.4,24.8,30.18,NNE,19,0.0,0.0,60,0.00,,---,0.01,VWS V14.00,2013-03-06 17:05:00,
2013-03-06 10:11:00,37.6,25.0,30.16,NNE,19,0.0,1.0,60,0.00,,---,0.01,VWS V14.00,2013-03-06 17:11:00,
2013-03-06 10:16:00,37.9,25.7,30.16,NNE,19,0.0,0.0,61,0.00,,---,0.01,VWS V14.00,2013-03-06 17:16:00,
2013-03-06 10:21:00,38.2,26.0,30.16,NNE,19,0.0,2.0,61,0.00,,---,0.01,VWS V14.00,2013-03-06 17:21:00,
2013-03-06 10:26:00,38.3,26.4,30.15,NNE,18,0.0,3.0,62,0.00,,---,0.01,VWS V14.00,2013-03-06 17:26:00,
2013-03-06 10:32:00,38.5,27.0,30.16,NNE,18,0.0,1.0,63,0.00,,---,0.01,VWS V14.00,2013-03-06 17:32:00,
2013-03-06 10:37:00,38.8,26.5,30.16,NNE,26,1.0,3.0,61,0.00,,---,0.01,VWS V14.00,2013-03-06 17:37:00,
2013-03-06 10:42:00,39.1,27.2,30.16,NNE,17,0.0,1.0,62,0.00,,---,0.01,VWS V14.00,2013-03-06 17:42:00,
2013-03-06 10:47:00,39.2,26.9,30.15,NNE,23,2.0,3.0,61,0.00,,---,0.01,VWS V14.00,2013-03-06 17:47:00,
2013-03-06 10:52:00,39.5,26.8,30.15,East,101,0.0,1.0,60,0.00,,---,0.01,VWS V14.00,2013-03-06 17:52:00,
2013-03-06 10:57:00,39.7,27.0,30.14,East,92,0.0,3.0,60,0.00,,---,0.01,VWS V14.00,2013-03-06 17:57:00,
2013-03-06 11:02:00,40.4,27.6,30.14,East,88,0.0,1.0,60,0.00,,---,0.01,VWS V14.00,2013-03-06 18:02:00,
2013-03-06 11:07:00,41.0,27.8,30.15,ENE,71,0.0,3.0,59,0.00,,---,0.01,VWS V14.00,2013-03-06 18:07:00,
2013-03-06 11:12:00,41.5,27.8,30.13,ENE,66,1.0,4.0,58,0.00,,---,0.01,VWS V14.00,2013-03-06 18:12:00,
2013-03-06 11:17:00,42.1,28.4,30.12,North,360,0.0,4.0,58,0.00,,---,0.01,VWS V14.00,2013-03-06 18:17:00,
2013-03-06 11:22:00,42.7,28.5,30.12,North,360,1.0,1.0,57,0.00,,---,0.01,VWS V14.00,2013-03-06 18:22:00,
2013-03-06 11:27:00,42.9,28.7,30.12,North,360,5.0,5.0,57,0.00,,---,0.01,VWS V14.00,2013-03-06 18:27:00,
2013-03-06 11:32:00,43.2,29.0,30.11,ENE,57,0.0,2.0,57,0.00,,---,0.01,VWS V14.00,2013-03-06 18:32:00,
2013-03-06 11:37:00,43.5,29.7,30.11,NE,55,0.0,2.0,58,0.00,,---,0.01,VWS V14.00,2013-03-06 18:37:00,
2013-03-06 11:42:00,43.8,29.6,30.10,NNE,15,0.0,1.0,57,0.00,,---,0.01,VWS V14.00,2013-03-06 18:42:00,
2013-03-06 11:47:00,44.2,29.5,30.09,NE,43,0.0,2.0,56,0.00,,---,0.01,VWS V14.00,2013-03-06 18:47:00,
2013-03-06 11:52:00,45.0,30.7,30.09,NNE,18,4.0,4.0,57,0.00,,---,0.01,VWS V14.00,2013-03-06 18:52:00,
2013-03-06 11:57:00,45.4,30.6,30.08,NNE,17,2.0,2.0,56,0.00,,---,0.01,VWS V14.00,2013-03-06 18:57:00,
2013-03-06 12:02:00,46.1,31.3,30.07,East,80,0.0,1.0,56,0.00,,---,0.01,VWS V14.00,2013-03-06 19:02:00,
2013-03-06 12:07:00,46.9,32.5,30.06,East,80,0.0,1.0,57,0.00,,---,0.01,VWS V14.00,2013-03-06 19:07:00,
2013-03-06 12:12:00,47.6,32.2,30.06,ENE,64,0.0,1.0,55,0.00,,---,0.01,VWS V14.00,2013-03-06 19:12:00,
2013-03-06 12:17:00,48.1,31.8,30.05,ENE,57,0.0,4.0,53,0.00,,---,0.01,VWS V14.00,2013-03-06 19:17:00,
2013-03-06 12:22:00,49.4,32.5,30.04,NW,312,0.0,4.0,52,0.00,,---,0.01,VWS V14.00,2013-03-06 19:22:00,
2013-03-06 12:27:00,50.5,32.6,30.02,North,350,0.0,1.0,50,0.00,,---,0.01,VWS V14.00,2013-03-06 19:27:00,
2013-03-06 12:32:00,51.8,32.2,30.01,NNE,22,0.0,1.0,47,0.00,,---,0.01,VWS V14.00,2013-03-06 19:32:00,
2013-03-06 12:38:00,52.3,31.6,30.00,NNE,17,2.0,5.0,45,0.00,,---,0.01,VWS V14.00,2013-03-06 19:38:00,
2013-03-06 12:43:00,52.5,31.8,30.00,NNE,24,2.0,4.0,45,0.00,,---,0.01,VWS V14.00,2013-03-06 19:43:00,
2013-03-06 12:49:00,53.3,32.5,29.99,NNE,24,0.0,1.0,45,0.00,,---,0.01,VWS V14.00,2013-03-06 19:49:00,
2013-03-06 12:54:00,54.4,32.4,29.98,North,360,1.0,1.0,43,0.00,,---,0.01,VWS V14.00,2013-03-06 19:54:00,
2013-03-06 12:59:00,55.4,32.1,29.97,NNE,30,2.0,5.0,41,0.00,,---,0.01,VWS V14.00,2013-03-06 19:59:00,
2013-03-06 13:05:00,55.5,32.2,29.97,NE,40,1.0,6.0,41,0.00,,---,0.01,VWS V14.00,2013-03-06 20:05:00,
2013-03-06 13:10:00,55.4,31.5,29.97,North,5,0.0,3.0,40,0.00,,---,0.01,VWS V14.00,2013-03-06 20:10:00,
2013-03-06 13:15:00,55.8,32.5,29.96,North,355,5.0,6.0,41,0.00,,---,0.01,VWS V14.00,2013-03-06 20:15:00,
2013-03-06 13:20:00,56.2,32.8,29.95,North,9,0.0,2.0,41,0.00,,---,0.01,VWS V14.00,2013-03-06 20:20:00,
2013-03-06 13:25:00,56.7,32.7,29.94,NNW,340,6.0,8.0,40,0.00,,---,0.01,VWS V14.00,2013-03-06 20:25:00,
2013-03-06 13:31:00,57.1,34.2,29.93,North,360,1.0,2.0,42,0.00,,---,0.01,VWS V14.00,2013-03-06 20:31:00,
2013-03-06 13:36:00,57.7,32.9,29.93,North,5,1.0,2.0,39,0.00,,---,0.01,VWS V14.00,2013-03-06 20:36:00,
2013-03-06 13:41:00,58.4,31.6,29.93,NE,42,2.0,3.0,36,0.00,,---,0.01,VWS V14.00,2013-03-06 20:41:00,
2013-03-06 13:46:00,60.1,30.2,29.92,ENE,57,2.0,2.0,32,0.00,,---,0.01,VWS V14.00,2013-03-06 20:46:00,
2013-03-06 13:52:00,61.4,24.3,29.92,ESE,111,5.0,5.0,24,0.00,,---,0.01,VWS V14.00,2013-03-06 20:52:00,
2013-03-06 13:57:00,61.3,22.2,29.91,ESE,111,0.0,4.0,22,0.00,,---,0.01,VWS V14.00,2013-03-06 20:57:00,
2013-03-06 14:03:00,61.1,22.0,29.92,ESE,110,1.0,4.0,22,0.00,,---,0.01,VWS V14.00,2013-03-06 21:03:00,
2013-03-06 14:08:00,61.9,21.6,29.91,SE,128,0.0,4.0,21,0.00,,---,0.01,VWS V14.00,2013-03-06 21:08:00,
2013-03-06 14:13:00,61.6,21.3,29.91,ESE,123,1.0,6.0,21,0.00,,---,0.01,VWS V14.00,2013-03-06 21:13:00,
2013-03-06 14:18:00,61.4,22.2,29.92,SE,132,2.0,7.0,22,0.00,,---,0.01,VWS V14.00,2013-03-06 21:18:00,
2013-03-06 14:23:00,61.2,23.1,29.92,East,91,3.0,3.0,23,0.00,,---,0.01,VWS V14.00,2013-03-06 21:23:00,
2013-03-06 14:28:00,61.4,22.2,29.92,SE,139,0.0,5.0,22,0.00,,---,0.01,VWS V14.00,2013-03-06 21:28:00,
2013-03-06 14:33:00,61.8,22.6,29.91,SE,126,3.0,11.0,22,0.00,,---,0.01,VWS V14.00,2013-03-06 21:33:00,
2013-03-06 14:39:00,62.2,24.0,29.91,SE,124,2.0,5.0,23,0.00,,---,0.01,VWS V14.00,2013-03-06 21:39:00,
2013-03-06 14:44:00,60.8,22.8,29.92,East,84,0.0,3.0,23,0.00,,---,0.01,VWS V14.00,2013-03-06 21:44:00,
2013-03-06 14:49:00,61.8,21.5,29.90,SE,126,3.0,7.0,21,0.00,,---,0.01,VWS V14.00,2013-03-06 21:49:00,
2013-03-06 14:54:00,61.2,21.0,29.92,East,90,2.0,6.0,21,0.00,,---,0.01,VWS V14.00,2013-03-06 21:54:00,
2013-03-06 14:59:00,61.1,23.0,29.91,East,98,4.0,6.0,23,0.00,,---,0.01,VWS V14.00,2013-03-06 21:59:00,
2013-03-06 15:04:00,60.7,20.6,29.91,SE,125,0.0,4.0,21,0.00,,---,0.01,VWS V14.00,2013-03-06 22:04:00,
2013-03-06 15:09:00,59.3,20.5,29.92,SSE,165,5.0,10.0,22,0.00,,---,0.01,VWS V14.00,2013-03-06 22:09:00,
2013-03-06 15:14:00,58.5,19.8,29.92,ESE,110,4.0,7.0,22,0.00,,---,0.01,VWS V14.00,2013-03-06 22:14:00,
2013-03-06 15:19:00,58.4,20.8,29.93,East,84,1.0,3.0,23,0.00,,---,0.01,VWS V14.00,2013-03-06 22:19:00,
2013-03-06 15:24:00,58.7,21.0,29.92,ENE,71,0.0,3.0,23,0.00,,---,0.01,VWS V14.00,2013-03-06 22:24:00,
2013-03-06 15:29:00,58.7,22.0,29.92,ENE,67,2.0,3.0,24,0.00,,---,0.01,VWS V14.00,2013-03-06 22:29:00,
2013-03-06 15:34:00,58.0,20.4,29.93,ESE,115,0.0,4.0,23,0.00,,---,0.01,VWS V14.00,2013-03-06 22:34:00,
2013-03-06 15:39:00,59.0,22.3,29.91,ESE,119,0.0,3.0,24,0.00,,---,0.01,VWS V14.00,2013-03-06 22:39:00,
2013-03-06 15:44:00,59.0,21.3,29.91,NE,51,0.0,5.0,23,0.00,,---,0.01,VWS V14.00,2013-03-06 22:44:00,
2013-03-06 15:49:00,59.0,21.3,29.91,SE,131,2.0,10.0,23,0.00,,---,0.01,VWS V14.00,2013-03-06 22:49:00,
2013-03-06 15:54:00,59.0,20.2,29.91,SE,134,0.0,3.0,22,0.00,,---,0.01,VWS V14.00,2013-03-06 22:54:00,
2013-03-06 16:00:00,59.0,19.1,29.91,ESE,119,3.0,4.0,21,0.00,,---,0.01,VWS V14.00,2013-03-06 23:00:00,
2013-03-06 16:05:00,59.0,19.1,29.92,ESE,113,0.0,2.0,21,0.00,,---,0.01,VWS V14.00,2013-03-06 23:05:00,
2013-03-06 16:10:00,58.9,20.1,29.92,SE,141,2.0,4.0,22,0.00,,---,0.01,VWS V14.00,2013-03-06 23:10:00,
2013-03-06 16:15:00,58.1,19.5,29.92,ESE,119,0.0,5.0,22,0.00,,---,0.01,VWS V14.00,2013-03-06 23:15:00,
2013-03-06 16:20:00,57.6,19.1,29.92,SE,137,0.0,0.0,22,0.00,,---,0.01,VWS V14.00,2013-03-06 23:20:00,
2013-03-06 16:25:00,57.5,21.0,29.92,SE,137,2.0,5.0,24,0.00,,---,0.01,VWS V14.00,2013-03-06 23:25:00,
2013-03-06 16:30:00,56.8,21.4,29.92,SE,128,0.0,1.0,25,0.00,,---,0.01,VWS V14.00,2013-03-06 23:30:00,
2013-03-06 16:35:00,56.4,21.0,29.92,ESE,121,3.0,5.0,25,0.00,,---,0.01,VWS V14.00,2013-03-06 23:35:00,
2013-03-06 16:40:00,55.9,21.5,29.92,ESE,121,0.0,3.0,26,0.00,,---,0.01,VWS V14.00,2013-03-06 23:40:00,
2013-03-06 16:45:00,55.5,21.2,29.92,SE,127,0.0,5.0,26,0.00,,---,0.01,VWS V14.00,2013-03-06 23:45:00,
2013-03-06 16:50:00,55.0,21.6,29.93,ESE,123,0.0,1.0,27,0.00,,---,0.01,VWS V14.00,2013-03-06 23:50:00,
2013-03-06 16:55:00,54.6,23.8,29.93,ESE,123,0.0,3.0,30,0.00,,---,0.01,VWS V14.00,2013-03-06 23:55:00,
2013-03-06 17:00:00,54.5,23.7,29.93,ESE,122,1.0,2.0,30,0.00,,---,0.01,VWS V14.00,2013-03-07 00:00:00,
2013-03-06 17:05:00,54.4,25.2,29.94,ESE,123,1.0,2.0,32,0.00,,---,0.01,VWS V14.00,2013-03-07 00:05:00,
2013-03-06 17:10:00,54.1,25.6,29.94,ESE,119,2.0,4.0,33,0.00,,---,0.01,VWS V14.00,2013-03-07 00:10:00,
2013-03-06 17:15:00,53.9,26.2,29.94,SE,128,0.0,5.0,34,0.00,,---,0.01,VWS V14.00,2013-03-07 00:15:00,
2013-03-06 17:20:00,53.7,26.7,29.95,SE,129,0.0,1.0,35,0.00,,---,0.01,VWS V14.00,2013-03-07 00:20:00,
2013-03-06 17:25:00,53.2,27.0,29.94,SE,129,0.0,1.0,36,0.00,,---,0.01,VWS V14.00,2013-03-07 00:25:00,
2013-03-06 17:30:00,52.9,26.7,29.94,SE,129,0.0,1.0,36,0.00,,---,0.01,VWS V14.00,2013-03-07 00:30:00,
2013-03-06 17:35:00,52.7,26.5,29.94,SE,129,0.0,0.0,36,0.00,,---,0.01,VWS V14.00,2013-03-07 00:35:00,
2013-03-06 17:40:00,52.5,26.3,29.94,SE,129,0.0,1.0,36,0.00,,---,0.01,VWS V14.00,2013-03-07 00:40:00,
2013-03-06 17:45:00,51.9,27.1,29.95,SE,129,0.0,1.0,38,0.00,,---,0.01,VWS V14.00,2013-03-07 00:45:00,
2013-03-06 17:50:00,51.3,27.2,29.95,SE,129,0.0,2.0,39,0.00,,---,0.01,VWS V14.00,2013-03-07 00:50:00,
2013-03-06 17:55:00,50.6,27.2,29.95,SE,129,0.0,0.0,40,0.00,,---,0.01,VWS V14.00,2013-03-07 00:55:00,
2013-03-06 18:00:00,50.2,26.8,29.97,SE,129,0.0,0.0,40,0.00,,---,0.01,VWS V14.00,2013-03-07 01:00:00,
2013-03-06 18:06:00,49.6,26.9,29.95,SE,129,0.0,0.0,41,0.00,,---,0.01,VWS V14.00,2013-03-07 01:06:00,
2013-03-06 18:11:00,49.2,27.1,29.96,SE,129,0.0,0.0,42,0.00,,---,0.01,VWS V14.00,2013-03-07 01:11:00,
2013-03-06 18:16:00,48.6,27.1,29.97,SE,129,1.0,1.0,43,0.00,,---,0.01,VWS V14.00,2013-03-07 01:16:00,
2013-03-06 18:22:00,48.2,26.8,29.97,SE,129,0.0,0.0,43,0.00,,---,0.01,VWS V14.00,2013-03-07 01:22:00,
2013-03-06 18:27:00,47.7,26.9,29.97,SE,129,0.0,0.0,44,0.00,,---,0.01,VWS V14.00,2013-03-07 01:27:00,
2013-03-06 18:32:00,47.6,26.8,29.97,SE,129,0.0,0.0,44,0.00,,---,0.01,VWS V14.00,2013-03-07 01:32:00,
2013-03-06 18:37:00,46.8,27.1,29.99,SE,129,0.0,0.0,46,0.00,,---,0.01,VWS V14.00,2013-03-07 01:37:00,
2013-03-06 18:42:00,46.1,27.0,29.99,SE,129,0.0,0.0,47,0.00,,---,0.01,VWS V14.00,2013-03-07 01:42:00,
2013-03-06 18:47:00,45.7,26.6,29.99,SE,129,0.0,0.0,47,0.00,,---,0.01,VWS V14.00,2013-03-07 01:47:00,
2013-03-06 18:52:00,45.2,26.7,30.00,SE,129,0.0,0.0,48,0.00,,---,0.01,VWS V14.00,2013-03-07 01:52:00,
2013-03-06 18:57:00,45.0,27.0,30.00,SE,129,0.0,0.0,49,0.00,,---,0.01,VWS V14.00,2013-03-07 01:57:00,
2013-03-06 19:02:00,44.5,27.0,30.01,SE,129,0.0,0.0,50,0.00,,---,0.01,VWS V14.00,2013-03-07 02:02:00,
2013-03-06 19:08:00,43.9,26.5,30.00,SE,129,0.0,0.0,50,0.00,,---,0.01,VWS V14.00,2013-03-07 02:08:00,
2013-03-06 19:13:00,43.5,26.6,30.00,SE,129,0.0,0.0,51,0.00,,---,0.01,VWS V14.00,2013-03-07 02:13:00,
2013-03-06 19:18:00,43.2,26.8,30.00,SE,129,0.0,0.0,52,0.00,,---,0.01,VWS V14.00,2013-03-07 02:18:00,
2013-03-06 19:23:00,42.8,26.9,30.00,SE,129,0.0,0.0,53,0.00,,---,0.01,VWS V14.00,2013-03-07 02:23:00,
2013-03-06 19:28:00,42.2,26.3,30.01,SE,129,0.0,0.0,53,0.00,,---,0.01,VWS V14.00,2013-03-07 02:28:00,
2013-03-06 19:33:00,42.0,26.6,30.01,SE,129,0.0,0.0,54,0.00,,---,0.01,VWS V14.00,2013-03-07 02:33:00,
2013-03-06 19:38:00,41.5,26.5,30.01,SE,129,0.0,0.0,55,0.00,,---,0.01,VWS V14.00,2013-03-07 02:38:00,
2013-03-06 19:43:00,41.1,26.6,30.01,SE,129,0.0,0.0,56,0.00,,---,0.01,VWS V14.00,2013-03-07 02:43:00,
2013-03-06 19:48:00,40.9,26.4,30.00,SE,129,0.0,0.0,56,0.00,,---,0.01,VWS V14.00,2013-03-07 02:48:00,
2013-03-06 19:53:00,40.7,26.7,30.01,SE,129,0.0,0.0,57,0.00,,---,0.01,VWS V14.00,2013-03-07 02:53:00,
2013-03-06 19:59:00,40.3,26.3,30.02,SE,129,0.0,0.0,57,0.00,,---,0.01,VWS V14.00,2013-03-07 02:59:00,
2013-03-06 20:04:00,40.1,26.5,29.98,SE,129,0.0,0.0,58,0.00,,---,0.01,VWS V14.00,2013-03-07 03:04:00,
2013-03-06 20:10:00,39.9,26.3,29.98,SE,129,0.0,0.0,58,0.00,,---,0.01,VWS V14.00,2013-03-07 03:10:00,
2013-03-06 20:15:00,39.8,26.7,29.98,SE,129,0.0,0.0,59,0.00,,---,0.01,VWS V14.00,2013-03-07 03:15:00,
2013-03-06 20:20:00,39.7,26.1,29.98,SE,129,0.0,0.0,58,0.00,,---,0.01,VWS V14.00,2013-03-07 03:20:00,
2013-03-06 20:25:00,39.6,26.1,29.98,SE,129,0.0,0.0,58,0.00,,---,0.01,VWS V14.00,2013-03-07 03:25:00,
2013-03-06 20:30:00,39.4,25.9,29.99,SE,129,0.0,0.0,58,0.00,,---,0.01,VWS V14.00,2013-03-07 03:30:00,
2013-03-06 20:35:00,39.2,26.1,29.99,SE,129,0.0,0.0,59,0.00,,---,0.01,VWS V14.00,2013-03-07 03:35:00,
2013-03-06 20:40:00,38.8,26.1,29.99,SE,129,0.0,0.0,60,0.00,,---,0.01,VWS V14.00,2013-03-07 03:40:00,
2013-03-06 20:46:00,38.4,25.7,30.00,SE,129,0.0,0.0,60,0.00,,---,0.01,VWS V14.00,2013-03-07 03:46:00,
2013-03-06 20:51:00,38.2,26.0,30.01,SE,129,0.0,0.0,61,0.00,,---,0.01,VWS V14.00,2013-03-07 03:51:00,
2013-03-06 20:56:00,37.9,25.7,30.00,SE,129,0.0,0.0,61,0.00,,---,0.01,VWS V14.00,2013-03-07 03:56:00,
2013-03-06 21:01:00,37.7,25.5,30.00,SE,129,0.0,0.0,61,0.00,,---,0.01,VWS V14.00,2013-03-07 04:01:00,
2013-03-06 21:06:00,37.6,25.8,29.96,SE,129,0.0,0.0,62,0.00,,---,0.01,VWS V14.00,2013-03-07 04:06:00,
2013-03-06 21:12:00,37.4,25.2,29.96,SE,129,0.0,0.0,61,0.00,,---,0.01,VWS V14.00,2013-03-07 04:12:00,
2013-03-06 21:18:00,37.1,25.3,29.95,SE,129,0.0,0.0,62,0.00,,---,0.01,VWS V14.00,2013-03-07 04:18:00,
2013-03-06 21:23:00,36.8,25.4,29.95,SE,129,0.0,0.0,63,0.00,,---,0.01,VWS V14.00,2013-03-07 04:23:00,
2013-03-06 21:28:00,36.6,25.2,29.95,SE,129,0.0,0.0,63,0.00,,---,0.01,VWS V14.00,2013-03-07 04:28:00,
2013-03-06 21:34:00,36.3,25.3,29.97,SE,129,0.0,0.0,64,0.00,,---,0.01,VWS V14.00,2013-03-07 04:34:00,
2013-03-06 21:39:00,36.1,25.1,29.97,SE,129,0.0,0.0,64,0.00,,---,0.01,VWS V14.00,2013-03-07 04:39:00,
2013-03-06 21:44:00,36.0,25.0,29.97,SE,129,0.0,0.0,64,0.00,,---,0.01,VWS V14.00,2013-03-07 04:44:00,
2013-03-06 21:50:00,35.8,24.8,29.97,SE,129,0.0,0.0,64,0.00,,---,0.01,VWS V14.00,2013-03-07 04:50:00,
2013-03-06 21:55:00,35.6,25.0,29.97,SE,129,0.0,0.0,65,0.00,,---,0.01,VWS V14.00,2013-03-07 04:55:00,
2013-03-06 22:00:00,35.5,24.9,29.96,SE,129,0.0,0.0,65,0.00,,---,0.01,VWS V14.00,2013-03-07 05:00:00,
2013-03-06 22:01:00,35.4,24.8,29.97,SE,129,0.0,0.0,65,0.00,,---,0.01,VWS V14.00,2013-03-07 05:01:00,
2013-03-06 22:06:00,35.2,25.0,29.95,SE,129,0.0,0.0,66,0.00,,---,0.01,VWS V14.00,2013-03-07 05:06:00,
2013-03-06 22:11:00,35.0,24.8,29.95,SE,129,0.0,0.0,66,0.00,,---,0.01,VWS V14.00,2013-03-07 05:11:00,
2013-03-06 22:16:00,34.8,24.6,29.95,SE,129,0.0,0.0,66,0.00,,---,0.01,VWS V14.00,2013-03-07 05:16:00,
2013-03-06 22:21:00,34.7,24.9,29.95,SE,129,0.0,0.0,67,0.00,,---,0.01,VWS V14.00,2013-03-07 05:21:00,
2013-03-06 22:26:00,34.4,24.6,29.95,SE,129,0.0,0.0,67,0.00,,---,0.01,VWS V14.00,2013-03-07 05:26:00,
2013-03-06 22:31:00,34.4,24.6,29.95,SE,129,0.0,0.0,67,0.00,,---,0.01,VWS V14.00,2013-03-07 05:31:00,
2013-03-06 22:36:00,34.4,24.6,29.95,SE,129,0.0,0.0,67,0.00,,---,0.01,VWS V14.00,2013-03-07 05:36:00,
2013-03-06 22:41:00,34.3,24.5,29.96,SE,129,0.0,0.0,67,0.00,,---,0.01,VWS V14.00,2013-03-07 05:41:00,
2013-03-06 22:46:00,34.1,24.3,29.95,SE,129,0.0,0.0,67,0.00,,---,0.01,VWS V14.00,2013-03-07 05:46:00,
2013-03-06 22:51:00,34.0,24.2,29.96,SE,129,0.0,0.0,67,0.00,,---,0.01,VWS V14.00,2013-03-07 05:51:00,
2013-03-06 22:56:00,33.9,24.5,29.96,SE,129,0.0,0.0,68,0.00,,---,0.01,VWS V14.00,2013-03-07 05:56:00,
2013-03-06 23:01:00,33.8,24.4,29.96,SE,129,0.0,0.0,68,0.00,,---,0.01,VWS V14.00,2013-03-07 06:01:00,
2013-03-06 23:06:00,33.7,24.6,29.93,SE,129,0.0,0.0,69,0.00,,---,0.01,VWS V14.00,2013-03-07 06:06:00,
2013-03-06 23:11:00,33.5,24.4,29.93,SE,129,0.0,0.0,69,0.00,,---,0.01,VWS V14.00,2013-03-07 06:11:00,
2013-03-06 23:16:00,33.4,24.7,29.93,SE,129,0.0,0.0,70,0.00,,---,0.01,VWS V14.00,2013-03-07 06:16:00,
2013-03-06 23:21:00,33.3,24.6,29.93,SE,129,0.0,0.0,70,0.00,,---,0.01,VWS V14.00,2013-03-07 06:21:00,
2013-03-06 23:26:00,33.2,24.5,29.93,SE,129,1.0,1.0,70,0.00,,---,0.01,VWS V14.00,2013-03-07 06:26:00,
2013-03-06 23:27:00,33.2,24.5,29.93,SE,129,0.0,2.0,70,0.00,,---,0.01,VWS V14.00,2013-03-07 06:27:00,
2013-03-06 23:32:00,33.1,24.4,29.93,SE,129,0.0,0.0,70,0.00,,---,0.01,VWS V14.00,2013-03-07 06:32:00,
2013-03-06 23:37:00,32.9,24.2,29.94,SE,129,0.0,0.0,70,0.00,,---,0.01,VWS V14.00,2013-03-07 06:37:00,
2013-03-06 23:42:00,32.9,24.2,29.94,SE,129,0.0,0.0,70,0.00,,---,0.01,VWS V14.00,2013-03-07 06:42:00,
2013-03-06 23:47:00,32.8,24.1,29.94,SE,129,0.0,0.0,70,0.00,,---,0.01,VWS V14.00,2013-03-07 06:47:00,
2013-03-06 23:52:00,32.7,24.4,29.94,SE,129,0.0,0.0,71,0.00,,---,0.01,VWS V14.00,2013-03-07 06:52:00,
2013-03-06 23:57:00,32.5,24.2,29.95,SE,129,0.0,0.0,71,0.00,,---,0.01,VWS V14.00,2013-03-07 06:57:00,